sensor_id;sensor_type;location;lat;lon;timestamp;pressure;altitude;pressure_sealevel;temperature;humidity
59859;BME280;45734;53.648;9.566;2023-02-19T00:04:35;53920.75;;;-145.06;100.00
59859;BME280;45734;53.648;9.566;2023-02-19T00:09:36;53934.91;;;-145.06;100.00
59859;BME280;45734;53.648;9.566;2023-02-19T00:14:36;53912.63;;;-145.06;100.00
59859;BME280;45734;53.648;9.566;2023-02-19T00:19:36;53880.22;;;-145.06;100.00
59859;BME280;45734;53.648;9.566;2023-02-19T00:24:37;53932.88;;;-145.06;100.00
59859;BME280;45734;53.648;9.566;2023-02-19T00:29:37;53936.94;;;-145.06;100.00
59859;BME280;45734;53.648;9.566;2023-02-19T00:34:37;53910.63;;;-145.06;100.00
59859;BME280;45734;53.648;9.566;2023-02-19T00:39:38;53906.56;;;-145.06;100.00
59859;BME280;45734;53.648;9.566;2023-02-19T00:44:38;53924.78;;;-145.06;100.00
59859;BME280;45734;53.648;9.566;2023-02-19T00:49:38;53890.38;;;-145.06;100.00
59859;BME280;45734;53.648;9.566;2023-02-19T00:54:38;53912.63;;;-145.06;100.00
59859;BME280;45734;53.648;9.566;2023-02-19T00:59:39;53892.38;;;-145.06;100.00
59859;BME280;45734;53.648;9.566;2023-02-19T01:04:39;53910.63;;;-145.06;100.00
59859;BME280;45734;53.648;9.566;2023-02-19T01:09:39;53898.47;;;-145.06;100.00
59859;BME280;45734;53.648;9.566;2023-02-19T01:14:40;53876.19;;;-145.06;100.00
59859;BME280;45734;53.648;9.566;2023-02-19T01:19:40;53922.75;;;-145.06;100.00
59859;BME280;45734;53.648;9.566;2023-02-19T01:24:41;53878.22;;;-145.06;100.00
59859;BME280;45734;53.648;9.566;2023-02-19T01:29:41;53924.78;;;-145.06;100.00
59859;BME280;45734;53.648;9.566;2023-02-19T01:34:41;53924.78;;;-145.06;100.00
59859;BME280;45734;53.648;9.566;2023-02-19T01:39:42;53900.50;;;-145.06;100.00
59859;BME280;45734;53.648;9.566;2023-02-19T01:49:50;53916.69;;;-145.06;100.00
59859;BME280;45734;53.648;9.566;2023-02-19T01:54:52;53908.59;;;-145.06;100.00
59859;BME280;45734;53.648;9.566;2023-02-19T01:59:57;53892.38;;;-145.06;100.00
59859;BME280;45734;53.648;9.566;2023-02-19T02:05:02;53932.88;;;-145.06;100.00
59859;BME280;45734;53.648;9.566;2023-02-19T02:10:02;53969.34;;;-145.06;100.00
59859;BME280;45734;53.648;9.566;2023-02-19T02:15:23;53884.28;;;-145.06;100.00
59859;BME280;45734;53.648;9.566;2023-02-19T02:26:08;53894.41;;;-145.06;100.00
59859;BME280;45734;53.648;9.566;2023-02-19T02:31:18;53898.47;;;-145.06;100.00
59859;BME280;45734;53.648;9.566;2023-02-19T02:36:28;53890.38;;;-145.06;100.00
59859;BME280;45734;53.648;9.566;2023-02-19T02:41:31;53900.50;;;-145.06;100.00
59859;BME280;45734;53.648;9.566;2023-02-19T02:46:34;53896.44;;;-145.06;100.00
59859;BME280;45734;53.648;9.566;2023-02-19T02:51:43;53936.94;;;-145.06;100.00
59859;BME280;45734;53.648;9.566;2023-02-19T02:56:46;53898.47;;;-145.06;100.00
59859;BME280;45734;53.648;9.566;2023-02-19T03:01:56;53912.63;;;-145.06;100.00
59859;BME280;45734;53.648;9.566;2023-02-19T03:07:11;53894.41;;;-145.06;100.00
59859;BME280;45734;53.648;9.566;2023-02-19T03:12:13;53906.56;;;-145.06;100.00
59859;BME280;45734;53.648;9.566;2023-02-19T03:17:58;53930.88;;;-145.06;100.00
59859;BME280;45734;53.648;9.566;2023-02-19T03:23:20;53943.00;;;-145.06;100.00
59859;BME280;45734;53.648;9.566;2023-02-19T03:28:42;53922.75;;;-145.06;100.00
59859;BME280;45734;53.648;9.566;2023-02-19T03:34:07;53912.63;;;-145.06;100.00
59859;BME280;45734;53.648;9.566;2023-02-19T03:39:12;53902.50;;;-145.06;100.00
59859;BME280;45734;53.648;9.566;2023-02-19T03:44:24;53918.72;;;-145.06;100.00
59859;BME280;45734;53.648;9.566;2023-02-19T03:49:41;53941.00;;;-145.06;100.00
59859;BME280;45734;53.648;9.566;2023-02-19T03:54:53;53900.50;;;-145.06;100.00
59859;BME280;45734;53.648;9.566;2023-02-19T04:05:25;53924.78;;;-145.06;100.00
59859;BME280;45734;53.648;9.566;2023-02-19T04:10:26;53926.81;;;-145.06;100.00
59859;BME280;45734;53.648;9.566;2023-02-19T04:15:30;53906.56;;;-145.06;100.00
59859;BME280;45734;53.648;9.566;2023-02-19T04:20:35;53924.78;;;-145.06;100.00
59859;BME280;45734;53.648;9.566;2023-02-19T04:25:40;53884.28;;;-145.06;100.00
59859;BME280;45734;53.648;9.566;2023-02-19T04:30:43;53934.91;;;-145.06;100.00
59859;BME280;45734;53.648;9.566;2023-02-19T04:35:43;53912.63;;;-145.06;100.00
59859;BME280;45734;53.648;9.566;2023-02-19T04:40:44;53908.59;;;-145.06;100.00
59859;BME280;45734;53.648;9.566;2023-02-19T04:45:45;53926.81;;;-145.06;100.00
59859;BME280;45734;53.648;9.566;2023-02-19T04:50:46;53888.34;;;-145.06;100.00
59859;BME280;45734;53.648;9.566;2023-02-19T04:55:46;53959.22;;;-145.06;100.00
59859;BME280;45734;53.648;9.566;2023-02-19T05:00:50;53902.50;;;-145.06;100.00
59859;BME280;45734;53.648;9.566;2023-02-19T05:05:51;53906.56;;;-145.06;100.00
59859;BME280;45734;53.648;9.566;2023-02-19T05:10:51;53938.97;;;-145.06;100.00
59859;BME280;45734;53.648;9.566;2023-02-19T05:16:01;53961.25;;;-145.06;100.00
59859;BME280;45734;53.648;9.566;2023-02-19T05:21:02;53882.25;;;-145.06;100.00
59859;BME280;45734;53.648;9.566;2023-02-19T05:26:07;53926.81;;;-145.06;100.00
59859;BME280;45734;53.648;9.566;2023-02-19T05:31:09;53947.06;;;-145.06;100.00
59859;BME280;45734;53.648;9.566;2023-02-19T05:36:12;53888.34;;;-145.06;100.00
59859;BME280;45734;53.648;9.566;2023-02-19T05:41:15;53916.69;;;-145.06;100.00
59859;BME280;45734;53.648;9.566;2023-02-19T05:46:18;53943.00;;;-145.06;100.00
59859;BME280;45734;53.648;9.566;2023-02-19T05:51:21;53924.78;;;-145.06;100.00
59859;BME280;45734;53.648;9.566;2023-02-19T06:01:26;53912.63;;;-145.06;100.00
59859;BME280;45734;53.648;9.566;2023-02-19T06:06:27;53916.69;;;-145.06;100.00
59859;BME280;45734;53.648;9.566;2023-02-19T06:11:28;53882.25;;;-145.06;100.00
59859;BME280;45734;53.648;9.566;2023-02-19T06:16:29;53928.84;;;-145.06;100.00
59859;BME280;45734;53.648;9.566;2023-02-19T06:21:31;53936.94;;;-145.06;100.00
59859;BME280;45734;53.648;9.566;2023-02-19T06:26:31;53924.78;;;-145.06;100.00
59859;BME280;45734;53.648;9.566;2023-02-19T06:31:32;53868.09;;;-145.06;100.00
59859;BME280;45734;53.648;9.566;2023-02-19T06:36:32;53920.75;;;-145.06;100.00
59859;BME280;45734;53.648;9.566;2023-02-19T06:41:33;53936.94;;;-145.06;100.00
59859;BME280;45734;53.648;9.566;2023-02-19T06:46:34;53898.47;;;-145.06;100.00
59859;BME280;45734;53.648;9.566;2023-02-19T06:51:34;53930.88;;;-145.06;100.00
59859;BME280;45734;53.648;9.566;2023-02-19T06:56:36;53896.44;;;-145.06;100.00
59859;BME280;45734;53.648;9.566;2023-02-19T07:01:39;53908.59;;;-145.06;100.00
59859;BME280;45734;53.648;9.566;2023-02-19T07:06:39;53902.50;;;-145.06;100.00
59859;BME280;45734;53.648;9.566;2023-02-19T07:11:40;53890.38;;;-145.06;100.00
59859;BME280;45734;53.648;9.566;2023-02-19T07:16:42;53892.38;;;-145.06;100.00
59859;BME280;45734;53.648;9.566;2023-02-19T07:21:42;53847.84;;;-145.06;100.00
59859;BME280;45734;53.648;9.566;2023-02-19T07:26:43;53872.13;;;-145.06;100.00
59859;BME280;45734;53.648;9.566;2023-02-19T07:31:43;53884.28;;;-145.06;100.00
59859;BME280;45734;53.648;9.566;2023-02-19T07:36:43;53896.44;;;-145.06;100.00
59859;BME280;45734;53.648;9.566;2023-02-19T07:41:44;53922.75;;;-145.06;100.00
59859;BME280;45734;53.648;9.566;2023-02-19T07:46:44;53882.25;;;-145.06;100.00
59859;BME280;45734;53.648;9.566;2023-02-19T07:51:45;53896.44;;;-145.06;100.00
59859;BME280;45734;53.648;9.566;2023-02-19T07:56:45;53819.47;;;-145.06;100.00
59859;BME280;45734;53.648;9.566;2023-02-19T08:01:45;53851.88;;;-145.06;100.00
59859;BME280;45734;53.648;9.566;2023-02-19T08:07:04;53829.59;;;-145.06;100.00
59859;BME280;45734;53.648;9.566;2023-02-19T08:12:05;53827.59;;;-145.06;100.00
59859;BME280;45734;53.648;9.566;2023-02-19T08:17:23;53754.69;;;-145.06;100.00
59859;BME280;45734;53.648;9.566;2023-02-19T08:22:24;53785.06;;;-145.06;100.00
59859;BME280;45734;53.648;9.566;2023-02-19T08:27:24;53748.59;;;-145.06;100.00
59859;BME280;45734;53.648;9.566;2023-02-19T08:32:24;53795.19;;;-145.06;100.00
59859;BME280;45734;53.648;9.566;2023-02-19T08:37:25;53758.72;;;-145.06;100.00
59859;BME280;45734;53.648;9.566;2023-02-19T08:42:27;53787.06;;;-145.06;100.00
59859;BME280;45734;53.648;9.566;2023-02-19T08:47:27;53795.19;;;-145.06;100.00
59859;BME280;45734;53.648;9.566;2023-02-19T08:52:27;53762.78;;;-145.06;100.00
59859;BME280;45734;53.648;9.566;2023-02-19T08:57:28;53789.09;;;-145.06;100.00
59859;BME280;45734;53.648;9.566;2023-02-19T09:02:28;53787.06;;;-145.06;100.00
59859;BME280;45734;53.648;9.566;2023-02-19T09:07:30;53807.31;;;-145.06;100.00
59859;BME280;45734;53.648;9.566;2023-02-19T09:12:31;53785.06;;;-145.06;100.00
59859;BME280;45734;53.648;9.566;2023-02-19T09:17:32;53738.47;;;-145.06;100.00
59859;BME280;45734;53.648;9.566;2023-02-19T09:22:32;53783.03;;;-145.06;100.00
59859;BME280;45734;53.648;9.566;2023-02-19T09:27:34;53772.91;;;-145.06;100.00
59859;BME280;45734;53.648;9.566;2023-02-19T09:32:34;53785.06;;;-145.06;100.00
59859;BME280;45734;53.648;9.566;2023-02-19T09:37:36;53811.38;;;-145.06;100.00
59859;BME280;45734;53.648;9.566;2023-02-19T09:42:38;53809.34;;;-145.06;100.00
59859;BME280;45734;53.648;9.566;2023-02-19T09:47:40;53799.22;;;-145.06;100.00
59859;BME280;45734;53.648;9.566;2023-02-19T09:52:56;53845.81;;;-145.06;100.00
59859;BME280;45734;53.648;9.566;2023-02-19T09:57:59;53811.38;;;-145.06;100.00
59859;BME280;45734;53.648;9.566;2023-02-19T10:03:08;53811.38;;;-145.06;100.00
59859;BME280;45734;53.648;9.566;2023-02-19T10:08:14;53825.56;;;-145.06;100.00
59859;BME280;45734;53.648;9.566;2023-02-19T10:13:20;53823.53;;;-145.06;100.00
59859;BME280;45734;53.648;9.566;2023-02-19T10:18:23;53805.31;;;-145.06;100.00
59859;BME280;45734;53.648;9.566;2023-02-19T10:23:24;53845.81;;;-145.06;100.00
59859;BME280;45734;53.648;9.566;2023-02-19T10:28:28;53813.41;;;-145.06;100.00
59859;BME280;45734;53.648;9.566;2023-02-19T10:33:29;53821.50;;;-145.06;100.00
59859;BME280;45734;53.648;9.566;2023-02-19T10:38:31;53862.00;;;-145.06;100.00
59859;BME280;45734;53.648;9.566;2023-02-19T10:43:37;53855.94;;;-145.06;100.00
59859;BME280;45734;53.648;9.566;2023-02-19T10:48:48;53874.16;;;-145.06;100.00
59859;BME280;45734;53.648;9.566;2023-02-19T10:54:04;53843.78;;;-145.06;100.00
59859;BME280;45734;53.648;9.566;2023-02-19T11:04:17;53876.19;;;-145.06;100.00
59859;BME280;45734;53.648;9.566;2023-02-19T11:09:24;53845.81;;;-145.06;100.00
59859;BME280;45734;53.648;9.566;2023-02-19T11:14:26;53851.88;;;-145.06;100.00
59859;BME280;45734;53.648;9.566;2023-02-19T11:19:36;53847.84;;;-145.06;100.00
59859;BME280;45734;53.648;9.566;2023-02-19T11:24:38;53864.03;;;-145.06;100.00
59859;BME280;45734;53.648;9.566;2023-02-19T11:29:39;53857.97;;;-145.06;100.00
59859;BME280;45734;53.648;9.566;2023-02-19T11:34:40;53880.22;;;-145.06;100.00
59859;BME280;45734;53.648;9.566;2023-02-19T11:39:46;53843.78;;;-145.06;100.00
59859;BME280;45734;53.648;9.566;2023-02-19T11:50:07;53819.47;;;-145.06;100.00
59859;BME280;45734;53.648;9.566;2023-02-19T11:55:20;53835.69;;;-145.06;100.00
59859;BME280;45734;53.648;9.566;2023-02-19T12:00:26;53878.22;;;-145.06;100.00
59859;BME280;45734;53.648;9.566;2023-02-19T12:05:33;53851.88;;;-145.06;100.00
59859;BME280;45734;53.648;9.566;2023-02-19T12:37:46;53880.22;;;-145.06;100.00
59859;BME280;45734;53.648;9.566;2023-02-19T12:48:02;53831.63;;;-145.06;100.00
59859;BME280;45734;53.648;9.566;2023-02-19T12:53:24;53829.59;;;-145.06;100.00
59859;BME280;45734;53.648;9.566;2023-02-19T12:58:59;53849.84;;;-145.06;100.00
59859;BME280;45734;53.648;9.566;2023-02-19T13:04:24;53825.56;;;-145.06;100.00
59859;BME280;45734;53.648;9.566;2023-02-19T13:09:32;53847.84;;;-145.06;100.00
59859;BME280;45734;53.648;9.566;2023-02-19T13:14:46;53886.31;;;-145.06;100.00
59859;BME280;45734;53.648;9.566;2023-02-19T13:19:51;53845.81;;;-145.06;100.00
59859;BME280;45734;53.648;9.566;2023-02-19T13:24:52;53862.00;;;-145.06;100.00
59859;BME280;45734;53.648;9.566;2023-02-19T13:30:06;53870.09;;;-145.06;100.00
59859;BME280;45734;53.648;9.566;2023-02-19T13:35:33;53819.47;;;-145.06;100.00
59859;BME280;45734;53.648;9.566;2023-02-19T13:40:40;53851.88;;;-145.06;100.00
59859;BME280;45734;53.648;9.566;2023-02-19T13:45:44;53827.59;;;-145.06;100.00
59859;BME280;45734;53.648;9.566;2023-02-19T13:50:45;53825.56;;;-145.06;100.00
59859;BME280;45734;53.648;9.566;2023-02-19T13:55:48;53862.00;;;-145.06;100.00
59859;BME280;45734;53.648;9.566;2023-02-19T14:00:50;53862.00;;;-145.06;100.00
59859;BME280;45734;53.648;9.566;2023-02-19T14:06:03;53839.72;;;-145.06;100.00
59859;BME280;45734;53.648;9.566;2023-02-19T14:11:07;53831.63;;;-145.06;100.00
59859;BME280;45734;53.648;9.566;2023-02-19T14:21:35;53874.16;;;-145.06;100.00
59859;BME280;45734;53.648;9.566;2023-02-19T14:26:36;53827.59;;;-145.06;100.00
59859;BME280;45734;53.648;9.566;2023-02-19T14:31:37;53841.75;;;-145.06;100.00
59859;BME280;45734;53.648;9.566;2023-02-19T14:36:44;53866.06;;;-145.06;100.00
59859;BME280;45734;53.648;9.566;2023-02-19T14:41:55;53823.53;;;-145.06;100.00
59859;BME280;45734;53.648;9.566;2023-02-19T14:47:01;53849.84;;;-145.06;100.00
59859;BME280;45734;53.648;9.566;2023-02-19T14:52:06;53845.81;;;-145.06;100.00
59859;BME280;45734;53.648;9.566;2023-02-19T14:57:18;53857.97;;;-145.06;100.00
59859;BME280;45734;53.648;9.566;2023-02-19T15:02:20;53876.19;;;-145.06;100.00
59859;BME280;45734;53.648;9.566;2023-02-19T15:07:31;53851.88;;;-145.06;100.00
59859;BME280;45734;53.648;9.566;2023-02-19T15:12:48;53821.50;;;-145.06;100.00
59859;BME280;45734;53.648;9.566;2023-02-19T15:17:51;53857.97;;;-145.06;100.00
59859;BME280;45734;53.648;9.566;2023-02-19T15:28:19;53851.88;;;-145.06;100.00
59859;BME280;45734;53.648;9.566;2023-02-19T15:33:20;53857.97;;;-145.06;100.00
59859;BME280;45734;53.648;9.566;2023-02-19T15:38:21;53849.84;;;-145.06;100.00
59859;BME280;45734;53.648;9.566;2023-02-19T15:43:29;53839.72;;;-145.06;100.00
59859;BME280;45734;53.648;9.566;2023-02-19T15:48:39;53839.72;;;-145.06;100.00
59859;BME280;45734;53.648;9.566;2023-02-19T15:53:45;53864.03;;;-145.06;100.00
59859;BME280;45734;53.648;9.566;2023-02-19T15:59:00;53841.75;;;-145.06;100.00
59859;BME280;45734;53.648;9.566;2023-02-19T16:04:03;53864.03;;;-145.06;100.00
59859;BME280;45734;53.648;9.566;2023-02-19T16:09:15;53870.09;;;-145.06;100.00
59859;BME280;45734;53.648;9.566;2023-02-19T16:19:42;53882.25;;;-145.06;100.00
59859;BME280;45734;53.648;9.566;2023-02-19T16:24:49;53831.63;;;-145.06;100.00
59859;BME280;45734;53.648;9.566;2023-02-19T16:29:50;53823.53;;;-145.06;100.00
59859;BME280;45734;53.648;9.566;2023-02-19T16:34:51;53833.66;;;-145.06;100.00
59859;BME280;45734;53.648;9.566;2023-02-19T16:45:06;53882.25;;;-145.06;100.00
59859;BME280;45734;53.648;9.566;2023-02-19T16:50:12;53868.09;;;-145.06;100.00
59859;BME280;45734;53.648;9.566;2023-02-19T16:55:14;53853.91;;;-145.06;100.00
59859;BME280;45734;53.648;9.566;2023-02-19T17:00:20;53896.44;;;-145.06;100.00
59859;BME280;45734;53.648;9.566;2023-02-19T17:05:22;53886.31;;;-145.06;100.00
59859;BME280;45734;53.648;9.566;2023-02-19T17:10:26;53870.09;;;-145.06;100.00
59859;BME280;45734;53.648;9.566;2023-02-19T17:15:27;53851.88;;;-145.06;100.00
59859;BME280;45734;53.648;9.566;2023-02-19T17:20:29;53870.09;;;-145.06;100.00
59859;BME280;45734;53.648;9.566;2023-02-19T17:25:29;53876.19;;;-145.06;100.00
59859;BME280;45734;53.648;9.566;2023-02-19T17:30:31;53902.50;;;-145.06;100.00
59859;BME280;45734;53.648;9.566;2023-02-19T17:35:31;53829.59;;;-145.06;100.00
59859;BME280;45734;53.648;9.566;2023-02-19T17:40:32;53845.81;;;-145.06;100.00
59859;BME280;45734;53.648;9.566;2023-02-19T17:45:32;53864.03;;;-145.06;100.00
59859;BME280;45734;53.648;9.566;2023-02-19T17:50:33;53880.22;;;-145.06;100.00
59859;BME280;45734;53.648;9.566;2023-02-19T17:55:33;53853.91;;;-145.06;100.00
59859;BME280;45734;53.648;9.566;2023-02-19T18:00:33;53841.75;;;-145.06;100.00
59859;BME280;45734;53.648;9.566;2023-02-19T18:05:35;53882.25;;;-145.06;100.00
59859;BME280;45734;53.648;9.566;2023-02-19T18:10:35;53866.06;;;-145.06;100.00
59859;BME280;45734;53.648;9.566;2023-02-19T18:15:36;53880.22;;;-145.06;100.00
59859;BME280;45734;53.648;9.566;2023-02-19T18:20:36;53862.00;;;-145.06;100.00
59859;BME280;45734;53.648;9.566;2023-02-19T18:25:37;53894.41;;;-145.06;100.00
59859;BME280;45734;53.648;9.566;2023-02-19T18:30:37;53864.03;;;-145.06;100.00
59859;BME280;45734;53.648;9.566;2023-02-19T18:35:37;53886.31;;;-145.06;100.00
59859;BME280;45734;53.648;9.566;2023-02-19T18:40:38;53870.09;;;-145.06;100.00
59859;BME280;45734;53.648;9.566;2023-02-19T18:45:38;53837.72;;;-145.06;100.00
59859;BME280;45734;53.648;9.566;2023-02-19T18:50:39;53862.00;;;-145.06;100.00
59859;BME280;45734;53.648;9.566;2023-02-19T18:55:39;53835.69;;;-145.06;100.00
59859;BME280;45734;53.648;9.566;2023-02-19T19:00:39;53811.38;;;-145.06;100.00
59859;BME280;45734;53.648;9.566;2023-02-19T19:05:39;53898.47;;;-145.06;100.00
59859;BME280;45734;53.648;9.566;2023-02-19T19:10:40;53837.72;;;-145.06;100.00
59859;BME280;45734;53.648;9.566;2023-02-19T19:15:40;53870.09;;;-145.06;100.00
59859;BME280;45734;53.648;9.566;2023-02-19T19:20:41;53843.78;;;-145.06;100.00
59859;BME280;45734;53.648;9.566;2023-02-19T19:25:41;53862.00;;;-145.06;100.00
59859;BME280;45734;53.648;9.566;2023-02-19T19:30:41;53827.59;;;-145.06;100.00
59859;BME280;45734;53.648;9.566;2023-02-19T19:35:41;53892.38;;;-145.06;100.00
59859;BME280;45734;53.648;9.566;2023-02-19T19:40:42;53829.59;;;-145.06;100.00
59859;BME280;45734;53.648;9.566;2023-02-19T19:45:42;53833.66;;;-145.06;100.00
59859;BME280;45734;53.648;9.566;2023-02-19T19:50:42;53845.81;;;-145.06;100.00
59859;BME280;45734;53.648;9.566;2023-02-19T19:55:43;53855.94;;;-145.06;100.00
59859;BME280;45734;53.648;9.566;2023-02-19T20:00:43;53847.84;;;-145.06;100.00
59859;BME280;45734;53.648;9.566;2023-02-19T20:05:46;53874.16;;;-145.06;100.00
59859;BME280;45734;53.648;9.566;2023-02-19T20:10:47;53884.28;;;-145.06;100.00
59859;BME280;45734;53.648;9.566;2023-02-19T20:15:47;53845.81;;;-145.06;100.00
59859;BME280;45734;53.648;9.566;2023-02-19T20:20:47;53866.06;;;-145.06;100.00
59859;BME280;45734;53.648;9.566;2023-02-19T20:25:48;53868.09;;;-145.06;100.00
59859;BME280;45734;53.648;9.566;2023-02-19T20:30:48;53843.78;;;-145.06;100.00
59859;BME280;45734;53.648;9.566;2023-02-19T20:35:48;53849.84;;;-145.06;100.00
59859;BME280;45734;53.648;9.566;2023-02-19T20:40:49;53851.88;;;-145.06;100.00
59859;BME280;45734;53.648;9.566;2023-02-19T20:45:49;53890.38;;;-145.06;100.00
59859;BME280;45734;53.648;9.566;2023-02-19T20:50:49;53870.09;;;-145.06;100.00
59859;BME280;45734;53.648;9.566;2023-02-19T20:55:49;53855.94;;;-145.06;100.00
59859;BME280;45734;53.648;9.566;2023-02-19T21:00:50;53890.38;;;-145.06;100.00
59859;BME280;45734;53.648;9.566;2023-02-19T21:05:52;53882.25;;;-145.06;100.00
59859;BME280;45734;53.648;9.566;2023-02-19T21:10:52;53872.13;;;-145.06;100.00
59859;BME280;45734;53.648;9.566;2023-02-19T21:15:55;53900.50;;;-145.06;100.00
59859;BME280;45734;53.648;9.566;2023-02-19T21:20:55;53872.13;;;-145.06;100.00
59859;BME280;45734;53.648;9.566;2023-02-19T21:25:55;53874.16;;;-145.06;100.00
59859;BME280;45734;53.648;9.566;2023-02-19T21:30:56;53884.28;;;-145.06;100.00
59859;BME280;45734;53.648;9.566;2023-02-19T21:35:56;53868.09;;;-145.06;100.00
59859;BME280;45734;53.648;9.566;2023-02-19T21:40:56;53841.75;;;-145.06;100.00
59859;BME280;45734;53.648;9.566;2023-02-19T21:45:57;53839.72;;;-145.06;100.00
59859;BME280;45734;53.648;9.566;2023-02-19T21:50:57;53888.34;;;-145.06;100.00
59859;BME280;45734;53.648;9.566;2023-02-19T21:55:57;53864.03;;;-145.06;100.00
59859;BME280;45734;53.648;9.566;2023-02-19T22:00:57;53900.50;;;-145.06;100.00
59859;BME280;45734;53.648;9.566;2023-02-19T22:06:00;53866.06;;;-145.06;100.00
59859;BME280;45734;53.648;9.566;2023-02-19T22:11:01;53868.09;;;-145.06;100.00
59859;BME280;45734;53.648;9.566;2023-02-19T22:16:01;53876.19;;;-145.06;100.00
59859;BME280;45734;53.648;9.566;2023-02-19T22:21:03;53864.03;;;-145.06;100.00
59859;BME280;45734;53.648;9.566;2023-02-19T22:26:03;53868.09;;;-145.06;100.00
59859;BME280;45734;53.648;9.566;2023-02-19T22:31:06;53880.22;;;-145.06;100.00
59859;BME280;45734;53.648;9.566;2023-02-19T22:36:27;53843.78;;;-145.06;100.00
59859;BME280;45734;53.648;9.566;2023-02-19T22:41:30;53906.56;;;-145.06;100.00
59859;BME280;45734;53.648;9.566;2023-02-19T22:46:30;53876.19;;;-145.06;100.00
59859;BME280;45734;53.648;9.566;2023-02-19T22:51:31;53900.50;;;-145.06;100.00
59859;BME280;45734;53.648;9.566;2023-02-19T22:56:31;53888.34;;;-145.06;100.00
59859;BME280;45734;53.648;9.566;2023-02-19T23:01:31;53874.16;;;-145.06;100.00
59859;BME280;45734;53.648;9.566;2023-02-19T23:06:33;53868.09;;;-145.06;100.00
59859;BME280;45734;53.648;9.566;2023-02-19T23:11:36;53870.09;;;-145.06;100.00
59859;BME280;45734;53.648;9.566;2023-02-19T23:16:37;53835.69;;;-145.06;100.00
59859;BME280;45734;53.648;9.566;2023-02-19T23:21:40;53876.19;;;-145.06;100.00
59859;BME280;45734;53.648;9.566;2023-02-19T23:26:47;53866.06;;;-145.06;100.00
59859;BME280;45734;53.648;9.566;2023-02-19T23:31:48;53878.22;;;-145.06;100.00
59859;BME280;45734;53.648;9.566;2023-02-19T23:36:49;53872.13;;;-145.06;100.00
59859;BME280;45734;53.648;9.566;2023-02-19T23:41:52;53874.16;;;-145.06;100.00
59859;BME280;45734;53.648;9.566;2023-02-19T23:46:53;53884.28;;;-145.06;100.00
59859;BME280;45734;53.648;9.566;2023-02-19T23:51:53;53864.03;;;-145.06;100.00
59859;BME280;45734;53.648;9.566;2023-02-19T23:56:54;53884.28;;;-145.06;100.00
